Time;durP1;ratioP1;P1;durP2;ratioP2;P2;SDS_P1;SDS_P2;PMS_P1;PMS_P2;Temp;Humidity;BMP_temperature;BMP_pressure;BME280_temperature;BME280_humidity;BME280_pressure;Samples;Min_cycle;Max_cycle;Signal;HPM_P1;HPM_P2
2024/04/08 00:03:56;;;;;;;4.30;1.20;;;;;;;17.21;53.63;99297.22;10378681;28;20045;-63
2024/04/08 00:08:57;;;;;;;2.83;1.30;;;;;;;17.24;53.61;99298.75;10379188;28;20043;-62
2024/04/08 00:13:58;;;;;;;3.33;1.40;;;;;;;17.25;53.78;99311.81;10395790;28;20649;-63
2024/04/08 00:19:00;;;;;;;3.92;1.55;;;;;;;17.25;53.81;99317.09;10394493;28;20116;-63
2024/04/08 00:24:01;;;;;;;8.02;1.40;;;;;;;17.18;53.85;99362.75;10394516;28;20115;-63
2024/04/08 00:29:02;;;;;;;3.22;1.40;;;;;;;17.05;54.18;99368.38;10394119;28;20409;-63
2024/04/08 00:34:03;;;;;;;4.13;1.60;;;;;;;16.82;54.52;99359.16;10392446;28;20053;-63
2024/04/08 00:39:04;;;;;;;4.47;1.80;;;;;;;16.78;54.77;99360.41;10395167;28;20056;-63
2024/04/08 00:44:05;;;;;;;4.25;1.40;;;;;;;16.70;54.53;99332.09;10394478;28;20042;-63
2024/04/08 00:49:08;;;;;;;4.53;1.50;;;;;;;16.77;54.55;99327.88;10393973;28;20133;-62
2024/04/08 00:54:09;;;;;;;6.45;1.58;;;;;;;16.75;54.73;99358.88;10393553;28;20466;-63
2024/04/08 00:59:14;;;;;;;4.90;1.75;;;;;;;16.71;55.23;99354.06;10361433;28;20476;-63
2024/04/08 01:04:15;;;;;;;3.55;1.42;;;;;;;16.64;55.39;99361.72;10392934;28;20045;-63
2024/04/08 01:09:16;;;;;;;5.50;1.77;;;;;;;16.61;55.09;99343.50;10393964;28;20371;-62
2024/04/08 01:14:17;;;;;;;5.05;2.10;;;;;;;16.66;55.12;99309.59;10392820;28;20152;-63
2024/04/08 01:19:23;;;;;;;4.43;1.38;;;;;;;16.64;55.02;99263.19;10376611;28;20103;-63
2024/04/08 01:24:24;;;;;;;2.05;1.10;;;;;;;16.54;55.38;99242.13;10376291;28;20095;-63
2024/04/08 01:29:25;;;;;;;5.38;1.55;;;;;;;16.70;55.31;99252.06;10392568;28;20037;-62
2024/04/08 01:34:26;;;;;;;3.83;1.40;;;;;;;16.69;55.43;99274.16;10367178;28;20505;-63
2024/04/08 01:39:27;;;;;;;7.68;1.58;;;;;;;16.61;55.64;99285.44;10392417;28;20045;-63
2024/04/08 01:44:28;;;;;;;5.78;1.90;;;;;;;16.51;56.13;99294.38;10391855;28;20052;-62
2024/04/08 01:49:29;;;;;;;2.75;1.73;;;;;;;16.49;56.23;99283.94;10374936;28;20072;-62
2024/04/08 01:54:30;;;;;;;2.17;1.30;;;;;;;16.69;56.18;99334.91;10391024;28;20107;-63
2024/04/08 01:59:31;;;;;;;4.05;1.30;;;;;;;16.55;56.52;99352.00;10391797;28;20524;-63
2024/04/08 02:04:32;;;;;;;2.83;1.42;;;;;;;16.46;57.07;99349.41;10391491;28;20056;-63
2024/04/08 02:09:33;;;;;;;3.70;1.88;;;;;;;16.50;57.03;99322.59;10375296;28;20482;-64
2024/04/08 02:14:33;;;;;;;3.55;1.58;;;;;;;16.50;57.63;99327.03;10374376;28;20049;-63
2024/04/08 02:19:34;;;;;;;2.47;1.40;;;;;;;16.50;57.48;99345.50;10391018;28;20042;-63
2024/04/08 02:24:35;;;;;;;3.42;1.42;;;;;;;16.46;57.72;99381.06;10390879;28;20037;-64
2024/04/08 02:29:36;;;;;;;3.60;1.40;;;;;;;16.41;58.16;99348.94;10391039;28;20506;-63
2024/04/08 02:34:37;;;;;;;4.38;1.85;;;;;;;16.48;58.06;99353.56;10389984;28;20289;-63
2024/04/08 02:39:39;;;;;;;3.72;1.30;;;;;;;16.34;58.17;99330.25;10406693;28;20037;-63
2024/04/08 02:44:40;;;;;;;4.10;1.50;;;;;;;16.35;58.13;99354.81;10390110;28;20091;-63
2024/04/08 02:49:41;;;;;;;3.60;1.23;;;;;;;16.24;58.22;99346.06;10390385;28;20056;-63
2024/04/08 02:54:42;;;;;;;5.60;1.70;;;;;;;16.26;58.55;99348.59;10389410;28;20056;-63
2024/04/08 02:59:47;;;;;;;3.97;1.50;;;;;;;16.21;58.85;99296.25;10378779;28;20049;-63
2024/04/08 03:04:51;;;;;;;2.60;1.30;;;;;;;16.30;58.79;99317.47;10381686;28;20430;-62
2024/04/08 03:09:52;;;;;;;3.38;1.45;;;;;;;16.28;58.56;99295.66;10397806;28;20061;-63
2024/04/08 03:14:53;;;;;;;4.75;1.85;;;;;;;14.93;61.67;99238.66;10397523;28;20061;-63
2024/04/08 03:19:55;;;;;;;2.63;1.70;;;;;;;14.87;62.46;99283.94;10381398;28;20037;-63
2024/04/08 03:24:56;;;;;;;3.63;1.60;;;;;;;14.68;62.62;99239.97;10397803;28;20067;-62
2024/04/08 03:29:57;;;;;;;2.80;1.58;;;;;;;14.56;63.83;99312.09;10381299;28;20557;-62
2024/04/08 03:34:58;;;;;;;3.92;1.50;;;;;;;14.47;63.57;99223.41;10380818;28;20125;-62
2024/04/08 03:39:59;;;;;;;3.63;2.00;;;;;;;14.46;63.66;99238.34;10397295;28;20072;-62
2024/04/08 03:45:00;;;;;;;2.65;1.38;;;;;;;14.71;63.24;99257.31;10396856;28;20048;-62
2024/04/08 03:50:01;;;;;;;2.92;1.40;;;;;;;14.50;63.40;99271.38;10396881;28;20274;-62
2024/04/08 03:55:01;;;;;;;2.55;1.40;;;;;;;14.32;64.13;99272.06;10396334;28;20057;-63
2024/04/08 04:00:03;;;;;;;3.95;1.38;;;;;;;14.18;64.51;99288.19;10396407;28;20567;-62
2024/04/08 04:05:05;;;;;;;4.22;1.42;;;;;;;14.29;64.19;99312.63;10379657;28;20111;-62
2024/04/08 04:10:08;;;;;;;3.88;1.65;;;;;;;14.34;64.24;99304.34;10379396;28;20741;-63
2024/04/08 04:15:11;;;;;;;2.15;1.20;;;;;;;14.32;64.07;99315.00;10378697;28;20060;-62
2024/04/08 04:20:15;;;;;;;4.13;1.75;;;;;;;14.27;64.22;99332.94;10379305;28;20049;-62
2024/04/08 04:25:17;;;;;;;3.63;1.83;;;;;;;14.18;64.50;99336.38;10395418;28;20132;-62
2024/04/08 04:31:44;;;;;;;2.80;1.45;;;;;;;14.03;64.21;99324.50;11366137;25;20472;-61
2024/04/08 04:36:47;;;;;;;2.17;1.30;;;;;;;13.99;63.88;99319.59;11363590;26;20086;-61
2024/04/08 04:41:50;;;;;;;5.82;1.60;;;;;;;13.96;64.67;99309.38;11333332;26;20976;-62
2024/04/08 04:46:54;;;;;;;3.83;1.60;;;;;;;13.82;63.98;99297.34;11366002;26;20002;-61
2024/04/08 04:51:56;;;;;;;4.35;1.55;;;;;;;13.91;64.48;99295.75;11333172;25;20010;-62
2024/04/08 04:56:59;;;;;;;3.05;1.60;;;;;;;13.94;64.42;99285.00;11328728;25;20002;-62
2024/04/08 05:02:02;;;;;;;4.07;1.40;;;;;;;13.95;64.45;99303.28;11393806;25;20005;-63
2024/04/08 05:07:05;;;;;;;2.70;1.50;;;;;;;13.97;63.84;99318.91;11332493;26;20013;-62
2024/04/08 05:12:08;;;;;;;3.72;1.55;;;;;;;13.92;63.79;99329.81;11364112;26;20006;-62
2024/04/08 05:17:10;;;;;;;2.28;1.40;;;;;;;13.98;64.14;99331.94;11365002;26;20110;-62
2024/04/08 05:22:17;;;;;;;2.30;1.50;;;;;;;13.96;64.28;99344.38;11363985;25;19998;-62
2024/04/08 05:27:19;;;;;;;2.35;1.45;;;;;;;14.00;63.95;99348.44;11364411;26;20016;-63
2024/04/08 05:32:22;;;;;;;8.90;2.42;;;;;;;14.05;64.12;99337.50;11363509;26;20005;-63
2024/04/08 05:37:24;;;;;;;11.00;2.60;;;;;;;14.20;63.74;99337.06;11365210;25;20021;-62
2024/04/08 05:42:27;;;;;;;3.88;1.77;;;;;;;14.30;63.69;99342.38;11332741;26;20358;-62
2024/04/08 05:47:29;;;;;;;5.93;1.90;;;;;;;14.40;63.34;99333.59;11331963;26;20465;-62
2024/04/08 05:52:33;;;;;;;4.05;1.60;;;;;;;14.58;62.68;99329.44;11330590;26;19998;-63
2024/04/08 05:57:35;;;;;;;2.92;1.50;;;;;;;14.74;62.57;99325.47;11269269;26;20017;-63
2024/04/08 06:02:39;;;;;;;4.60;1.60;;;;;;;14.90;62.28;99323.19;11298851;26;19998;-62
2024/04/08 06:07:42;;;;;;;4.97;1.60;;;;;;;14.96;62.31;99327.91;11276368;26;20029;-62
2024/04/08 06:12:45;;;;;;;4.10;1.50;;;;;;;15.05;62.50;99308.66;11298754;26;20013;-62
2024/04/08 06:17:48;;;;;;;4.90;1.60;;;;;;;15.06;62.38;99311.16;11298208;26;20354;-63
2024/04/08 06:22:50;;;;;;;4.38;2.10;;;;;;;15.17;62.02;99316.31;11323345;26;20006;-62
2024/04/08 06:27:53;;;;;;;3.60;1.80;;;;;;;15.25;62.20;99307.72;11293436;26;20009;-62
2024/04/08 06:32:57;;;;;;;5.78;2.05;;;;;;;15.36;61.78;99302.38;11282180;26;20021;-63
2024/04/08 06:38:00;;;;;;;3.85;1.60;;;;;;;15.57;61.60;99302.28;11321703;26;20036;-63
2024/04/08 06:43:03;;;;;;;7.07;1.73;;;;;;;15.76;61.22;99302.25;11319235;26;20016;-63
2024/04/08 06:48:06;;;;;;;4.60;1.85;;;;;;;15.72;61.04;99311.41;11320475;26;20025;-63
2024/04/08 06:53:09;;;;;;;4.90;1.80;;;;;;;15.75;61.29;99309.34;11292207;26;20002;-63
2024/04/08 06:58:14;;;;;;;5.22;1.83;;;;;;;15.75;61.26;99311.16;11325674;26;19998;-63
2024/04/08 07:03:17;;;;;;;4.38;1.70;;;;;;;15.99;61.07;99312.38;11285262;26;19998;-63
2024/04/08 07:08:20;;;;;;;4.38;2.53;;;;;;;16.14;60.77;99316.22;11285347;26;20354;-63
2024/04/08 07:13:22;;;;;;;3.67;1.77;;;;;;;16.48;59.99;99307.84;11293298;26;20006;-63
2024/04/08 07:18:26;;;;;;;5.20;2.03;;;;;;;16.58;59.93;99308.66;11327422;26;20016;-62
2024/04/08 07:23:29;;;;;;;3.50;1.67;;;;;;;16.72;59.31;99309.03;11286177;26;20002;-63
2024/04/08 07:28:32;;;;;;;4.93;1.98;;;;;;;16.81;59.46;99308.13;11315400;26;20002;-63
2024/04/08 07:33:35;;;;;;;2.55;1.35;;;;;;;17.17;58.88;99309.06;11324753;26;20002;-63
2024/04/08 07:38:38;;;;;;;5.53;1.80;;;;;;;17.59;58.13;99299.63;11325458;26;19994;-63
2024/04/08 07:44:00;;;;;;;4.93;1.58;;;;;;;18.43;56.88;99297.31;11301199;26;20394;-63
2024/04/08 07:49:03;;;;;;;3.33;1.63;;;;;;;19.03;55.29;99287.53;11327325;26;20232;-64
2024/04/08 07:54:06;;;;;;;3.92;1.70;;;;;;;19.37;54.58;99289.13;11293264;26;20355;-64
2024/04/08 07:59:08;;;;;;;2.83;1.50;;;;;;;19.88;53.67;99280.09;11327120;26;20002;-65
2024/04/08 08:04:11;;;;;;;3.05;1.40;;;;;;;20.34;52.39;99275.88;11318589;26;20092;-65
2024/04/08 08:09:14;;;;;;;4.00;1.98;;;;;;;20.68;51.35;99276.44;11318895;26;20113;-64
2024/04/08 08:14:17;;;;;;;5.38;1.38;;;;;;;21.21;50.40;99264.25;11286860;26;20038;-65
2024/04/08 08:19:19;;;;;;;4.90;2.15;;;;;;;21.49;50.42;99268.09;11258514;26;21045;-65
2024/04/08 08:24:22;;;;;;;4.20;1.45;;;;;;;21.75;49.17;99268.56;11318735;26;20012;-65
2024/04/08 08:29:26;;;;;;;4.93;1.92;;;;;;;21.97;48.12;99267.72;11287959;26;20007;-65
2024/04/08 08:34:28;;;;;;;8.98;1.98;;;;;;;22.18;47.36;99256.41;11281211;26;20002;-65
2024/04/08 08:39:37;;;;;;;5.25;1.65;;;;;;;22.20;47.25;99255.22;11320924;26;20323;-65
2024/04/08 08:44:46;;;;;;;6.35;1.98;;;;;;;22.19;46.53;99256.19;11284502;26;20002;-65
2024/04/08 08:49:53;;;;;;;5.57;1.55;;;;;;;22.10;46.35;99251.16;11317807;26;20434;-65
2024/04/08 08:54:56;;;;;;;4.40;1.75;;;;;;;22.50;45.75;99242.72;11317202;26;20012;-65
2024/04/08 09:00:01;;;;;;;3.45;1.48;;;;;;;22.84;45.66;99250.19;11316869;26;20423;-65
2024/04/08 09:05:04;;;;;;;4.13;1.50;;;;;;;23.12;45.41;99256.47;11253710;26;20081;-65
2024/04/08 09:10:06;;;;;;;6.13;1.95;;;;;;;23.37;44.74;99245.25;11318578;26;19998;-65
2024/04/08 09:15:12;;;;;;;5.85;1.55;;;;;;;23.11;44.23;99236.97;11312137;26;20006;-65
2024/04/08 09:20:15;;;;;;;6.30;1.60;;;;;;;22.95;44.09;99239.84;11277343;26;20073;-65
2024/04/08 09:25:19;;;;;;;6.18;1.30;;;;;;;22.95;43.29;99239.84;11319429;26;20006;-64
2024/04/08 09:30:22;;;;;;;2.60;1.13;;;;;;;22.89;42.88;99250.44;11317002;26;20007;-64
2024/04/08 09:35:25;;;;;;;2.92;1.40;;;;;;;23.11;42.10;99244.13;11318860;26;20006;-64
2024/04/08 09:40:28;;;;;;;4.05;1.38;;;;;;;23.63;42.10;99228.72;11319501;26;20013;-64
2024/04/08 09:45:34;;;;;;;4.30;1.45;;;;;;;23.90;42.04;99238.56;11313631;26;20473;-64
2024/04/08 09:50:40;;;;;;;2.60;1.20;;;;;;;24.07;41.00;99258.69;11286592;26;20006;-64
2024/04/08 09:55:46;;;;;;;3.72;1.52;;;;;;;23.95;39.39;99244.19;11320327;26;20671;-64
2024/04/08 10:00:52;;;;;;;4.38;1.77;;;;;;;23.80;40.43;99246.09;11318989;26;20002;-65
2024/04/08 10:05:55;;;;;;;6.28;1.95;;;;;;;23.89;40.59;99228.09;11324215;26;20698;-64
2024/04/08 10:10:58;;;;;;;6.68;1.67;;;;;;;24.03;40.27;99217.31;11290778;26;20004;-64
2024/04/08 10:16:10;;;;;;;10.68;1.70;;;;;;;24.22;38.71;99219.34;11324644;26;20599;-65
2024/04/08 10:21:15;;;;;;;6.50;1.55;;;;;;;24.62;38.27;99215.03;11323492;26;20002;-64
2024/04/08 10:26:17;;;;;;;4.38;1.30;;;;;;;25.18;37.87;99226.38;11351744;26;20013;-64
2024/04/08 10:31:21;;;;;;;3.70;1.38;;;;;;;25.28;38.45;99224.16;11261438;26;19998;-64
2024/04/08 10:36:23;;;;;;;3.05;1.40;;;;;;;24.97;38.27;99221.16;11323787;26;20563;-64
2024/04/08 10:41:26;;;;;;;3.17;1.77;;;;;;;24.56;39.03;99215.00;11322385;26;20009;-64
2024/04/08 10:46:28;;;;;;;5.20;1.58;;;;;;;25.00;38.69;99204.69;11323713;26;20017;-64
2024/04/08 10:51:32;;;;;;;3.45;1.20;;;;;;;24.67;37.91;99209.91;11320820;26;19998;-64
2024/04/08 10:56:35;;;;;;;3.30;1.20;;;;;;;24.29;37.96;99206.84;11319625;26;20075;-64
2024/04/08 11:01:37;;;;;;;6.07;1.45;;;;;;;24.55;37.43;99197.31;11286908;26;20494;-64
2024/04/08 11:06:40;;;;;;;4.95;1.48;;;;;;;24.82;37.32;99185.72;11322614;26;20114;-64
2024/04/08 11:11:43;;;;;;;4.72;1.85;;;;;;;25.04;37.01;99171.16;11320548;26;19998;-64
2024/04/08 11:16:46;;;;;;;5.13;1.75;;;;;;;25.28;37.13;99169.78;11285763;26;20006;-65
2024/04/08 11:21:49;;;;;;;3.75;1.50;;;;;;;25.35;36.42;99162.59;11232339;26;20002;-64
2024/04/08 11:26:51;;;;;;;3.85;1.33;;;;;;;25.06;36.43;99161.91;11313893;26;20006;-64
2024/04/08 11:32:04;;;;;;;4.35;1.45;;;;;;;25.29;35.91;99158.03;11256426;26;20010;-64
2024/04/08 11:37:11;;;;;;;2.80;1.10;;;;;;;25.44;34.92;99164.91;11317592;26;20008;-64
2024/04/08 11:42:14;;;;;;;5.30;1.20;;;;;;;25.54;35.40;99159.13;11283178;26;20103;-64
2024/04/08 11:47:18;;;;;;;6.13;1.88;;;;;;;25.47;34.61;99144.91;11316293;26;20461;-64
2024/04/08 11:52:21;;;;;;;8.10;1.98;;;;;;;25.50;34.83;99150.69;11280009;26;20437;-64
2024/04/08 11:57:24;;;;;;;7.88;1.30;;;;;;;25.44;33.83;99138.13;11307981;26;20010;-65
2024/04/08 12:02:27;;;;;;;3.60;1.40;;;;;;;25.51;33.24;99132.78;11235931;26;20021;-64
2024/04/08 12:07:29;;;;;;;3.47;1.30;;;;;;;25.59;33.49;99140.59;11307003;26;20029;-64
2024/04/08 12:12:32;;;;;;;4.03;1.00;;;;;;;25.64;33.58;99128.22;11305342;26;20050;-64
2024/04/08 12:17:37;;;;;;;4.13;1.20;;;;;;;25.65;33.25;99119.13;11283224;26;20296;-63
2024/04/08 12:22:40;;;;;;;3.40;1.48;;;;;;;25.91;33.50;99115.63;11255789;26;20002;-64
2024/04/08 12:27:43;;;;;;;5.47;2.05;;;;;;;26.03;32.76;99118.50;11318876;26;20008;-64
2024/04/08 12:32:46;;;;;;;5.15;1.80;;;;;;;26.17;31.86;99120.09;11317130;26;20501;-65
2024/04/08 12:37:50;;;;;;;3.83;1.30;;;;;;;26.22;31.55;99104.22;11316203;26;20593;-64
2024/04/08 12:42:55;;;;;;;5.95;1.38;;;;;;;26.24;31.81;99096.81;11283836;26;20394;-65
2024/04/08 12:47:58;;;;;;;4.95;1.30;;;;;;;26.30;31.31;99085.22;11319777;26;20009;-65
2024/04/08 12:53:02;;;;;;;5.97;1.48;;;;;;;26.31;31.31;99070.78;11326007;26;20062;-65
2024/04/08 12:58:11;;;;;;;12.68;1.52;;;;;;;26.10;29.30;99063.03;11327461;26;20017;-65
2024/04/08 13:03:15;;;;;;;7.55;1.83;;;;;;;26.17;30.80;99066.50;11329399;26;20315;-64
2024/04/08 13:08:19;;;;;;;5.85;1.40;;;;;;;26.09;30.06;99067.56;11326915;26;20013;-64
2024/04/08 13:13:22;;;;;;;5.85;1.95;;;;;;;26.03;30.10;99063.06;11332022;26;20006;-64
2024/04/08 13:18:26;;;;;;;6.35;1.73;;;;;;;26.14;29.92;99073.09;11331198;26;20010;-65
2024/04/08 13:23:30;;;;;;;5.18;1.33;;;;;;;26.26;28.33;99068.72;11300112;26;20017;-64
2024/04/08 13:28:34;;;;;;;4.72;1.83;;;;;;;26.33;29.35;99072.22;11298418;26;20006;-64
2024/04/08 13:33:38;;;;;;;5.40;1.30;;;;;;;26.09;29.74;99072.09;11332669;26;20078;-65
2024/04/08 13:38:42;;;;;;;4.53;1.40;;;;;;;25.85;29.44;99082.44;11331242;26;20006;-65
2024/04/08 13:43:46;;;;;;;5.55;1.55;;;;;;;25.82;28.86;99066.78;11331037;26;20014;-65
2024/04/08 13:48:51;;;;;;;4.97;1.50;;;;;;;26.13;28.46;99047.34;11269802;26;20002;-65
2024/04/08 13:53:54;;;;;;;6.20;2.03;;;;;;;26.29;28.10;99029.94;11298130;26;19998;-63
2024/04/08 13:58:58;;;;;;;4.10;1.02;;;;;;;26.41;28.58;99033.59;11331896;26;20002;-64
2024/04/08 14:04:01;;;;;;;8.73;1.45;;;;;;;26.68;28.20;99035.94;11329372;26;20030;-64
2024/04/08 14:09:06;;;;;;;3.53;1.00;;;;;;;26.90;27.41;99022.16;11267806;26;20017;-65
2024/04/08 14:14:08;;;;;;;4.78;1.95;;;;;;;26.72;26.22;99020.25;11265405;26;20401;-65
2024/04/08 14:19:11;;;;;;;2.33;0.98;;;;;;;26.83;26.13;99018.72;11328518;26;20009;-64
2024/04/08 14:24:14;;;;;;;3.17;1.42;;;;;;;26.61;25.72;99010.19;11329067;26;20017;-64
2024/04/08 14:29:16;;;;;;;4.05;1.55;;;;;;;26.41;25.58;98993.38;11330132;26;20448;-64
2024/04/08 14:34:29;;;;;;;3.13;1.40;;;;;;;26.69;25.78;99001.88;11327224;26;20041;-64
2024/04/08 14:39:32;;;;;;;4.25;1.60;;;;;;;26.77;26.06;98995.44;11330071;26;20009;-64
2024/04/08 14:44:39;;;;;;;6.00;1.95;;;;;;;26.65;25.98;98972.00;11329657;26;20544;-64
2024/04/08 14:49:52;;;;;;;6.47;1.45;;;;;;;26.61;25.93;98967.28;11296743;26;19998;-64
2024/04/08 14:54:55;;;;;;;6.05;2.15;;;;;;;26.62;26.51;98964.41;11329436;26;20017;-64
2024/04/08 14:59:59;;;;;;;4.95;1.33;;;;;;;26.54;26.34;98966.50;11329724;26;20006;-64
2024/04/08 15:05:03;;;;;;;2.65;1.08;;;;;;;26.69;26.54;98958.97;11329161;26;20092;-64
2024/04/08 15:10:08;;;;;;;5.03;1.50;;;;;;;26.44;26.29;98952.75;11297617;26;20002;-64
2024/04/08 15:15:10;;;;;;;6.10;1.40;;;;;;;26.38;26.62;98948.25;11292925;26;20509;-64
2024/04/08 15:20:13;;;;;;;3.97;1.40;;;;;;;26.45;26.56;98944.47;11322465;26;20017;-65
2024/04/08 15:25:16;;;;;;;3.63;1.50;;;;;;;26.44;26.42;98942.00;11289085;26;20045;-64
2024/04/08 15:30:19;;;;;;;5.60;1.60;;;;;;;26.43;26.34;98937.69;11318286;26;20010;-65
2024/04/08 15:35:22;;;;;;;3.85;1.20;;;;;;;26.42;26.44;98928.84;11284841;26;19998;-65
2024/04/08 15:40:24;;;;;;;5.63;1.15;;;;;;;26.40;26.54;98938.13;11320292;26;20017;-64
2024/04/08 15:45:27;;;;;;;7.53;1.35;;;;;;;26.46;26.58;98907.75;11287675;26;20611;-65
2024/04/08 15:50:30;;;;;;;4.65;1.90;;;;;;;26.63;26.05;98906.19;11320100;26;20434;-65
2024/04/08 15:55:32;;;;;;;3.20;1.30;;;;;;;26.77;26.51;98912.28;11287901;26;20076;-64
2024/04/08 16:00:35;;;;;;;5.07;1.20;;;;;;;26.85;26.52;98906.63;11320570;26;20522;-64
2024/04/08 16:05:38;;;;;;;8.05;1.33;;;;;;;26.77;26.94;98890.81;11319129;26;19998;-64
2024/04/08 16:10:42;;;;;;;4.78;1.33;;;;;;;26.52;26.89;98896.16;11319969;26;19998;-64
2024/04/08 16:15:48;;;;;;;6.07;2.00;;;;;;;26.44;26.94;98897.25;11279553;26;21043;-64
2024/04/08 16:21:01;;;;;;;5.55;1.35;;;;;;;26.25;26.60;98895.53;11287675;26;20050;-64
2024/04/08 16:26:06;;;;;;;9.10;1.50;;;;;;;26.17;26.94;98906.53;11257233;26;20184;-64
2024/04/08 16:31:09;;;;;;;5.47;1.38;;;;;;;26.13;27.46;98894.59;11316484;26;20006;-64
2024/04/08 16:36:12;;;;;;;8.75;1.77;;;;;;;26.05;27.50;98888.66;11314768;26;20096;-64
2024/04/08 16:41:15;;;;;;;5.68;1.13;;;;;;;25.99;27.53;98890.34;11318489;26;20013;-64
2024/04/08 16:46:18;;;;;;;4.00;1.50;;;;;;;25.96;29.02;98884.59;11318696;26;20346;-64
2024/04/08 16:51:21;;;;;;;6.47;2.13;;;;;;;25.85;28.08;98881.50;11318507;26;20007;-63
2024/04/08 16:56:24;;;;;;;4.53;1.40;;;;;;;25.83;28.32;98870.19;11257044;26;19998;-63
2024/04/08 17:01:27;;;;;;;14.27;2.55;;;;;;;25.72;27.83;98872.75;11260473;26;20350;-64
2024/04/08 17:06:48;;;;;;;10.85;2.42;;;;;;;25.54;26.68;98870.78;11255741;26;20006;-64
2024/04/08 17:11:57;;;;;;;11.73;2.70;;;;;;;25.23;27.64;98862.63;11318356;26;20013;-64
2024/04/08 17:17:00;;;;;;;8.60;1.83;;;;;;;25.02;27.77;98857.53;11312508;26;20002;-64
2024/04/08 17:22:03;;;;;;;6.28;1.70;;;;;;;24.84;28.16;98862.72;11317230;26;19998;-64
2024/04/08 17:27:06;;;;;;;8.05;1.75;;;;;;;24.53;28.09;98857.19;11316393;26;20009;-64
2024/04/08 17:32:09;;;;;;;9.07;2.55;;;;;;;24.14;28.58;98855.31;11253725;26;20082;-64
2024/04/08 17:37:13;;;;;;;7.10;2.40;;;;;;;23.78;29.07;98871.63;11318934;26;20010;-64
2024/04/08 17:42:16;;;;;;;8.80;2.00;;;;;;;23.43;29.57;98870.91;11351707;26;20362;-64
2024/04/08 17:47:22;;;;;;;6.80;1.30;;;;;;;23.29;29.78;98866.50;11289709;26;20002;-64
2024/04/08 17:52:25;;;;;;;8.32;1.98;;;;;;;23.05;30.10;98855.50;11321428;26;20006;-64
2024/04/08 17:57:27;;;;;;;7.88;1.55;;;;;;;22.69;31.16;98864.50;11288181;26;20294;-64
2024/04/08 18:02:32;;;;;;;9.15;1.85;;;;;;;22.56;31.52;98867.03;11287207;26;20016;-64
2024/04/08 18:07:35;;;;;;;5.10;1.23;;;;;;;22.41;32.14;98852.97;11311515;26;20002;-64
2024/04/08 18:12:40;;;;;;;5.95;1.80;;;;;;;22.24;32.50;98866.78;11278182;26;20014;-64
2024/04/08 18:17:43;;;;;;;5.35;1.70;;;;;;;22.11;32.94;98862.16;11276664;26;20453;-64
2024/04/08 18:22:46;;;;;;;7.18;1.55;;;;;;;21.92;33.11;98851.28;11312822;26;20781;-64
2024/04/08 18:27:50;;;;;;;4.57;1.85;;;;;;;21.54;33.58;98826.72;11318080;26;20005;-63
2024/04/08 18:32:53;;;;;;;5.35;1.60;;;;;;;21.34;33.94;98834.47;11283532;26;20002;-64
2024/04/08 18:37:57;;;;;;;4.95;1.30;;;;;;;21.25;34.40;98838.22;11314953;26;20372;-64
2024/04/08 18:42:59;;;;;;;7.55;1.42;;;;;;;21.10;34.80;98832.09;11315417;26;20005;-64
2024/04/08 18:48:03;;;;;;;7.68;2.15;;;;;;;20.96;35.14;98847.06;11316638;26;19998;-64
2024/04/08 18:53:07;;;;;;;7.88;2.33;;;;;;;20.83;35.88;98857.50;11317355;26;20814;-64
2024/04/08 18:58:11;;;;;;;13.23;2.80;;;;;;;20.56;37.29;98850.09;11317429;26;20020;-65
2024/04/08 19:03:17;;;;;;;7.72;2.83;;;;;;;20.23;37.95;98844.25;11285089;26;20798;-64
2024/04/08 19:08:20;;;;;;;8.35;2.30;;;;;;;19.95;38.55;98842.34;11321871;26;20005;-62
2024/04/08 19:13:22;;;;;;;6.30;1.70;;;;;;;19.91;39.17;98854.31;11320076;26;20046;-63
2024/04/08 19:18:26;;;;;;;9.65;2.15;;;;;;;19.68;39.64;98869.34;11319826;26;20006;-63
2024/04/08 19:23:29;;;;;;;7.35;2.10;;;;;;;19.53;40.23;98865.78;11319874;26;20002;-63
2024/04/08 19:28:32;;;;;;;11.93;2.80;;;;;;;19.42;40.41;98849.25;11289820;26;20100;-63
2024/04/08 19:33:35;;;;;;;4.55;1.80;;;;;;;19.11;41.23;98847.59;11319938;26;19994;-63
2024/04/08 19:38:37;;;;;;;8.63;2.08;;;;;;;19.19;41.74;98852.84;11289406;26;20529;-63
2024/04/08 19:43:40;;;;;;;7.40;2.75;;;;;;;19.24;41.75;98867.25;11288859;26;20513;-63
2024/04/08 19:48:43;;;;;;;4.43;2.03;;;;;;;19.20;42.29;98860.63;11319744;26;19998;-64
2024/04/08 19:53:46;;;;;;;10.48;1.92;;;;;;;19.05;43.00;98866.84;11317693;26;20461;-63
2024/04/08 19:58:49;;;;;;;4.20;1.50;;;;;;;19.03;43.04;98866.97;11317472;26;20006;-63
2024/04/08 20:03:54;;;;;;;9.18;1.92;;;;;;;18.94;42.72;98846.78;11319534;26;20013;-63
2024/04/08 20:08:57;;;;;;;5.53;1.70;;;;;;;18.81;43.34;98845.69;11289855;26;20069;-64
2024/04/08 20:14:00;;;;;;;3.50;1.48;;;;;;;18.68;43.66;98854.16;11319903;26;20957;-63
2024/04/08 20:19:02;;;;;;;4.20;1.60;;;;;;;18.59;43.93;98876.34;11287685;26;20234;-63
2024/04/08 20:24:06;;;;;;;5.85;2.28;;;;;;;18.43;44.23;98876.34;11290546;26;20489;-63
2024/04/08 20:29:10;;;;;;;6.55;1.83;;;;;;;18.41;44.14;98876.53;11288511;26;20009;-63
2024/04/08 20:34:14;;;;;;;7.22;1.75;;;;;;;18.43;43.90;98849.88;11325819;26;20470;-63
2024/04/08 20:39:20;;;;;;;8.80;1.45;;;;;;;18.50;44.02;98850.88;11324243;26;20211;-63
2024/04/08 20:44:24;;;;;;;6.97;2.13;;;;;;;18.16;44.89;98839.59;11325326;26;19998;-63
2024/04/08 20:49:30;;;;;;;6.22;1.75;;;;;;;18.11;45.66;98836.63;11324614;26;20161;-63
2024/04/08 20:54:42;;;;;;;5.38;2.13;;;;;;;18.25;45.74;98826.25;11290070;26;19998;-64
2024/04/08 20:59:45;;;;;;;8.80;2.10;;;;;;;18.18;45.76;98813.81;11292899;26;20203;-63
2024/04/08 21:04:49;;;;;;;5.65;2.05;;;;;;;18.20;45.96;98803.94;11324726;26;20743;-63
2024/04/08 21:09:53;;;;;;;4.38;1.50;;;;;;;18.17;46.31;98801.56;11324539;26;20016;-63
2024/04/08 21:14:56;;;;;;;5.40;2.03;;;;;;;18.17;46.14;98817.44;11330301;26;20073;-63
2024/04/08 21:20:02;;;;;;;9.65;2.00;;;;;;;18.13;46.07;98809.03;11295635;26;20514;-63
2024/04/08 21:25:07;;;;;;;12.52;2.25;;;;;;;18.06;46.47;98793.97;11330184;26;20010;-63
2024/04/08 21:30:10;;;;;;;6.32;1.73;;;;;;;17.65;47.45;98767.50;11329753;26;19998;-63
2024/04/08 21:35:13;;;;;;;4.80;1.95;;;;;;;17.64;47.98;98779.09;11239453;26;19998;-63
2024/04/08 21:40:16;;;;;;;5.10;1.83;;;;;;;17.72;47.75;98776.47;11330812;26;19998;-63
2024/04/08 21:45:19;;;;;;;6.63;2.35;;;;;;;17.61;47.82;98745.03;11330172;26;20005;-63
2024/04/08 21:50:22;;;;;;;5.00;2.10;;;;;;;17.66;48.32;98755.13;11329050;26;19998;-63
2024/04/08 21:55:25;;;;;;;8.15;2.25;;;;;;;17.80;48.04;98760.59;11326904;26;20318;-63
2024/04/08 22:00:28;;;;;;;7.13;1.60;;;;;;;17.61;48.67;98747.69;11296822;26;20017;-63
2024/04/08 22:05:31;;;;;;;6.90;2.13;;;;;;;17.65;48.59;98764.03;11263759;26;20009;-63
2024/04/08 22:10:33;;;;;;;5.28;1.70;;;;;;;17.71;48.23;98766.03;11267801;26;20342;-63
2024/04/08 22:15:37;;;;;;;3.85;1.70;;;;;;;17.56;48.78;98757.94;11329573;26;20021;-63
2024/04/08 22:20:40;;;;;;;7.07;1.98;;;;;;;17.58;48.55;98755.97;11329687;26;20112;-63
2024/04/08 22:25:43;;;;;;;7.88;2.05;;;;;;;17.71;48.89;98771.31;11291141;26;20058;-64
2024/04/08 22:30:45;;;;;;;7.95;1.73;;;;;;;17.53;49.29;98750.31;11328948;26;19998;-63
2024/04/08 22:35:49;;;;;;;3.92;1.80;;;;;;;17.61;48.83;98737.09;11297683;26;20002;-63
2024/04/08 22:40:51;;;;;;;10.20;2.38;;;;;;;17.78;49.08;98736.13;11297063;26;19998;-63
2024/04/08 22:46:05;;;;;;;4.72;1.73;;;;;;;17.59;49.63;98733.81;11353322;26;20006;-63
2024/04/08 22:51:07;;;;;;;6.30;1.90;;;;;;;17.39;50.40;98724.53;11326859;26;20002;-63
2024/04/08 22:56:10;;;;;;;6.22;1.83;;;;;;;17.31;50.58;98732.44;11328908;26;20349;-63
2024/04/08 23:01:14;;;;;;;4.90;1.95;;;;;;;17.39;50.64;98732.47;11329028;26;20365;-64
2024/04/08 23:06:17;;;;;;;10.07;2.92;;;;;;;17.48;50.37;98720.94;11297143;26;20013;-63
2024/04/08 23:11:20;;;;;;;3.45;1.48;;;;;;;17.51;50.12;98720.56;11266665;26;20002;-63
2024/04/08 23:16:22;;;;;;;5.07;1.50;;;;;;;17.59;49.80;98733.81;11327722;26;19994;-63
2024/04/08 23:21:25;;;;;;;4.70;1.67;;;;;;;17.56;49.70;98731.50;11326857;26;20006;-63
2024/04/08 23:26:28;;;;;;;4.88;1.50;;;;;;;17.43;49.97;98743.53;11327676;26;20002;-63
2024/04/08 23:31:30;;;;;;;7.30;1.88;;;;;;;17.43;50.36;98770.78;11290961;26;19998;-63